Kezdőlap
METAR-TAF:

METAR-TAF

Repülőterek :

Samsun, Törökország

földrajzi szélesség: 41-15-15N, földrajzi hosszúság: 036-34-03E, magasság: 5 m

Jelenlegi meteorológiai megfigyelések

A jelentés 38 perccel ezelõtt készült, 10:50 UTC
Déli szél 9 kt, dél-délkeleti és délnyugati között változik
Hőmérséklet 19°C
Páratartalom 40%
Légköri nyomás 1005 hPa
Látótávolság 10 km, vagy több
Szórványos felhőzet 3600 lábon
Szakadozott felhőzet 10000 lábon

METAR: LTFH 131050Z 19009KT 150V230 9999 SCT036 BKN100 19/05 Q1005 NOSIG

Idő: 14:28 (11:28 UTC)

Előrejelzés

A jelentés 3 órával és 48 perccel ezelõtt készült, 07:40 UTC
Az előrejelzés 13-én 09 óra UTC és 13-én 18 óra UTC között érvényes
Dél-délnyugati szél 8 kt
Látótávolság 10 km, vagy több
Szórványos felhőzet 3600 lábon
Szakadozott felhőzet 10000 lábon

TAF: LTFH 130740Z 1309/1318 20008KT 9999 SCT036 BKN100

Meteorológiai megfigyelések és előrejelzések több, mint 4000 repülőtéren (METAR és TAF jelentéseket).

A térképen piros és sárga pontok jelzik az elérhető meteorológiai állomásokat.

Mozgassa az egeret a pont fölött, hogy megjelenjen az állomás neve.

Azután kattintson az időjárási megfigyelések és előrejelzések megtekintéséhez.

A térkép megváltoztatása: kattintson a fekete keresztel jelölt zöld gombra ráközelítéshez, a vonallal jelölt zöld gombra távolításhoz, vagy a zöld nyilakra a szomszédos térképek eléréséhez.


METAR-TAF: